Briefing drone pour Fleury-les-aubrais

Rechercher une autre localisation

Conditions de vol :


Nous sommes le : Dimanche 25 juillet 2021
Il est 15:10 UTC (17:10 LT)

Lever de soleil : 03:54 UTC (05:54 LT)
Coucher de soleil : 20:03 UTC (22:03 LT)

Météo

L'essentiel des conditions de vol

VIGILANCE MÉTÉO FRANCE - Loiret (45)
Vigilance Jaune : Orages
METAR de LFOJ
LFOJ 251500Z AUTO 24017KT 5000 BR FEW017/// BKN038/// BKN052/// ///CB 20/16 Q1008

Date d'émission: 25/07/2021
Heure d'émission: 15:00 UTC
Vent: 240° pour 17 KT (31 km/h)
Visibilité horizontale: 5000 m
Plafond :
- Peu de nuages à 1700ft (518m)
- Nuages morcelés à 3800ft (1158m)
- Nuages morcelés à 5200ft (1585m)
Température: 20 °C
Point de rosée: 16 °C
Humidité: 78%
Pression (QNH): 1008 hPa
Conditions: Brume
TAF de LFOJ
LFOJ 250800Z 2509/2609 CNL

Conditions prévues :

Heure d'émission : Bulletin éffectué le 25 à 09:00 UTC
Prévision : Valide du 25 a 09:00 UTC au 26 a 09:00 UTC
Nuages : à 0ft (0 m)
WEBCAM POUR FLEURY-LES-AUBRAIS

Réglementation

Voler en sécurité

CARTES AERONAUTIQUE 1/500.000
CARTES VAC (LFOJ)
SUP AIP




Chargement des AIP...
NOTAM (FLEURY-LES-AUBRAIS + Terrain à proximité / FIR )




Chargement des NOTAMS...
CONTACT PREFECTURE 45


Avertissement : Les données mises à disposition sont indicatives. Oxygène Drone ne pourra être tenu responsable de dégâts causés aux biens et aux personnes.